createdAt,value
2018-12-07T05:05:43.941Z,19.40
2018-12-07T05:10:45.119Z,19.40
2018-12-07T05:13:11.842Z,19.40
2018-12-07T05:15:38.562Z,19.40
2018-12-07T05:18:05.434Z,19.40
2018-12-07T05:20:31.634Z,19.40
2018-12-07T05:22:57.896Z,19.40
2018-12-07T05:25:24.472Z,19.30
2018-12-07T05:27:50.933Z,19.40
2018-12-07T05:30:17.219Z,19.40
2018-12-07T05:32:44.048Z,19.40
2018-12-07T05:35:10.271Z,19.30
2018-12-07T05:37:36.534Z,19.40
2018-12-07T05:40:02.790Z,19.40
2018-12-07T05:42:28.990Z,19.30
2018-12-07T05:44:55.916Z,19.40
2018-12-07T05:47:22.122Z,19.40
2018-12-07T05:49:48.377Z,19.30
2018-12-07T05:52:14.581Z,19.30
2018-12-07T05:54:40.999Z,19.40
2018-12-07T05:57:07.194Z,19.30
2018-12-07T05:59:33.469Z,19.40
2018-12-07T06:01:59.705Z,19.40
2018-12-07T06:04:25.916Z,19.40
2018-12-07T06:06:52.115Z,19.40
2018-12-07T06:09:18.517Z,19.30
2018-12-07T06:11:44.705Z,19.20
2018-12-07T06:14:11.545Z,19.20
2018-12-07T06:16:37.760Z,19.20
2018-12-07T06:19:03.958Z,19.10
2018-12-07T06:21:30.154Z,19.10
2018-12-07T06:23:56.368Z,19.10
2018-12-07T06:26:22.610Z,19.00
2018-12-07T06:28:48.897Z,19.10
2018-12-07T06:31:15.339Z,19.10
2018-12-07T06:33:41.777Z,19.10
2018-12-07T06:36:07.976Z,19.10
2018-12-07T06:38:34.224Z,19.10
2018-12-07T06:41:01.272Z,19.10
2018-12-07T06:43:27.468Z,19.10
2018-12-07T06:45:53.688Z,19.10
2018-12-07T06:48:19.938Z,19.10
2018-12-07T06:50:47.162Z,19.10
2018-12-07T06:53:13.370Z,19.20
2018-12-07T06:55:40.628Z,19.30
2018-12-07T06:58:07.093Z,19.40
2018-12-07T07:00:33.298Z,19.40
2018-12-07T07:03:00.244Z,19.40
2018-12-07T07:05:26.715Z,19.40
2018-12-07T07:07:52.910Z,19.40
2018-12-07T07:10:19.137Z,19.40
2018-12-07T07:12:45.354Z,19.40
2018-12-07T07:15:11.551Z,19.40
2018-12-07T07:17:37.746Z,19.40
2018-12-07T07:20:03.962Z,19.40
2018-12-07T07:22:30.260Z,19.40
2018-12-07T07:24:56.487Z,19.40
2018-12-07T07:27:22.704Z,19.40
2018-12-07T07:29:49.722Z,19.40
2018-12-07T07:32:15.922Z,19.40
2018-12-07T07:34:42.132Z,19.40
2018-12-07T07:37:08.359Z,19.40
2018-12-07T07:39:34.581Z,19.40
2018-12-07T07:42:00.796Z,19.40
2018-12-07T07:44:27.509Z,19.40
2018-12-07T07:46:53.734Z,19.40
2018-12-07T07:49:19.966Z,19.40
2018-12-07T07:51:46.180Z,19.40
2018-12-07T07:54:12.385Z,19.40
2018-12-07T07:56:38.579Z,19.40
2018-12-07T07:59:05.315Z,19.40
2018-12-07T08:01:31.524Z,19.40
2018-12-07T08:03:58.020Z,19.40
2018-12-07T08:06:24.225Z,19.40
2018-12-07T08:08:50.454Z,19.40
2018-12-07T08:11:16.676Z,19.40
2018-12-07T08:13:43.337Z,19.40
2018-12-07T08:16:09.569Z,19.40
2018-12-07T08:18:35.764Z,19.40
2018-12-07T08:21:02.049Z,19.40
2018-12-07T08:23:28.350Z,19.40
2018-12-07T08:25:54.611Z,19.40
2018-12-07T08:28:20.809Z,19.40
2018-12-07T08:30:47.762Z,19.40
2018-12-07T08:33:13.959Z,19.40
2018-12-07T08:35:40.219Z,19.40
2018-12-07T08:38:06.409Z,19.40
2018-12-07T08:40:32.635Z,19.40
2018-12-07T08:42:59.516Z,19.40
2018-12-07T08:45:25.821Z,19.40
2018-12-07T08:47:52.260Z,19.40
2018-12-07T08:50:19.203Z,19.40
2018-12-07T08:52:45.393Z,19.40
2018-12-07T08:55:11.853Z,19.40
2018-12-07T08:57:38.065Z,19.40
2018-12-07T09:00:04.256Z,19.40
2018-12-07T09:02:30.880Z,19.40
2018-12-07T09:04:57.101Z,19.40
2018-12-07T09:07:23.344Z,19.40
2018-12-07T09:09:49.547Z,19.40
2018-12-07T09:12:16.112Z,19.40
2018-12-07T09:14:42.304Z,19.40
2018-12-07T09:17:09.266Z,19.40
2018-12-07T09:19:35.506Z,19.40
2018-12-07T09:22:01.734Z,19.40
2018-12-07T09:24:27.930Z,19.40
2018-12-07T09:26:54.122Z,19.40
2018-12-07T09:29:20.645Z,19.40
2018-12-07T09:31:46.874Z,19.40
2018-12-07T09:34:13.816Z,19.40
2018-12-07T09:36:40.013Z,19.40
2018-12-07T09:39:06.897Z,19.40
2018-12-07T09:41:33.115Z,19.40
2018-12-07T09:43:59.339Z,19.40
2018-12-07T09:46:25.526Z,19.40
2018-12-07T09:48:51.810Z,19.40
2018-12-07T09:51:18.031Z,19.40
2018-12-07T09:53:44.240Z,19.40
2018-12-07T09:56:10.497Z,19.40
2018-12-07T09:58:36.718Z,19.40
2018-12-07T10:01:03.441Z,19.40
2018-12-07T10:03:29.836Z,19.40
2018-12-07T10:05:56.131Z,19.40
2018-12-07T10:08:22.612Z,19.40
2018-12-07T10:10:48.849Z,19.40
2018-12-07T10:13:15.078Z,19.40
2018-12-07T10:15:41.285Z,19.40
2018-12-07T10:18:07.552Z,19.40
2018-12-07T10:20:33.771Z,19.40
2018-12-07T10:22:59.974Z,19.40
2018-12-07T10:25:26.221Z,19.40
2018-12-07T10:27:52.436Z,19.40
2018-12-07T10:30:18.965Z,19.40
2018-12-07T10:32:45.265Z,19.40
2018-12-07T10:35:11.463Z,19.40
2018-12-07T10:37:37.694Z,19.40
2018-12-07T10:40:03.904Z,19.40
2018-12-07T10:42:30.102Z,19.40
2018-12-07T10:44:56.289Z,19.40
2018-12-07T10:47:22.675Z,19.40
2018-12-07T10:49:48.933Z,19.40
2018-12-07T10:52:15.133Z,19.40
2018-12-07T10:54:42.299Z,19.30
2018-12-07T10:57:09.246Z,19.30
2018-12-07T10:59:35.432Z,19.40
2018-12-07T11:02:02.401Z,19.40
2018-12-07T11:04:28.672Z,19.40
2018-12-07T11:06:54.866Z,19.40
2018-12-07T11:09:21.247Z,19.40
2018-12-07T11:11:47.444Z,19.40
2018-12-07T11:14:13.817Z,19.40
2018-12-07T11:16:40.010Z,19.40
2018-12-07T11:19:06.233Z,19.40
2018-12-07T11:21:32.436Z,19.40
2018-12-07T11:23:59.368Z,19.40
2018-12-07T11:26:25.598Z,19.40
2018-12-07T11:28:51.977Z,19.40
2018-12-07T11:31:18.189Z,19.40
2018-12-07T11:33:44.380Z,19.40
2018-12-07T11:36:10.586Z,19.40
2018-12-07T11:38:36.836Z,19.40
2018-12-07T11:41:03.044Z,19.40
2018-12-07T11:43:29.296Z,19.40
2018-12-07T11:45:55.505Z,19.40
2018-12-07T11:48:21.727Z,19.40
2018-12-07T11:50:48.158Z,19.40
2018-12-07T11:53:14.349Z,19.40
2018-12-07T11:55:41.037Z,19.40
2018-12-07T11:58:07.253Z,19.40
2018-12-07T12:00:33.473Z,19.40
2018-12-07T12:02:59.671Z,19.40
2018-12-07T12:05:25.869Z,19.30
2018-12-07T12:07:52.070Z,19.30
2018-12-07T12:10:18.263Z,19.40
2018-12-07T12:12:44.476Z,19.40
2018-12-07T12:15:10.669Z,19.30
2018-12-07T12:17:37.392Z,19.30
2018-12-07T12:20:03.588Z,19.30
2018-12-07T12:22:29.796Z,19.30
2018-12-07T12:24:56.004Z,19.30
2018-12-07T12:27:23.192Z,19.30
2018-12-07T12:29:49.856Z,19.40
2018-12-07T12:32:16.068Z,19.30
2018-12-07T12:34:42.291Z,19.40
2018-12-07T12:37:08.482Z,19.40
2018-12-07T12:39:34.679Z,19.40
2018-12-07T12:42:00.872Z,19.40
2018-12-07T12:44:27.065Z,19.40
2018-12-07T12:46:53.286Z,19.40
2018-12-07T12:49:19.481Z,19.40
2018-12-07T12:51:45.720Z,19.40
2018-12-07T12:54:11.929Z,19.40
2018-12-07T12:56:38.153Z,19.40
2018-12-07T12:59:04.845Z,19.40
2018-12-07T13:01:31.066Z,19.40
2018-12-07T13:03:57.254Z,19.40
2018-12-07T13:06:23.905Z,19.40
2018-12-07T13:08:50.229Z,19.40
2018-12-07T13:11:16.452Z,19.40
2018-12-07T13:13:42.670Z,19.40
2018-12-07T13:16:08.885Z,19.40
2018-12-07T13:18:35.082Z,19.40
2018-12-07T13:21:01.345Z,19.30
2018-12-07T13:23:27.629Z,19.30
2018-12-07T13:25:53.876Z,19.30
2018-12-07T13:28:20.873Z,19.30
2018-12-07T13:30:47.106Z,19.30
2018-12-07T13:33:14.443Z,19.30
2018-12-07T13:35:40.760Z,19.30
2018-12-07T13:38:07.046Z,19.30
2018-12-07T13:40:33.382Z,19.30
2018-12-07T13:42:59.858Z,19.30
2018-12-07T13:45:26.142Z,19.30
2018-12-07T13:47:52.961Z,19.30
2018-12-07T13:50:19.425Z,19.30
2018-12-07T13:52:45.908Z,19.30
2018-12-07T13:55:12.754Z,19.30
2018-12-07T13:57:39.223Z,19.30
2018-12-07T14:00:05.599Z,19.30
2018-12-07T14:02:32.539Z,19.30
2018-12-07T14:04:59.720Z,19.30
2018-12-07T14:07:26.192Z,19.30
2018-12-07T14:09:53.235Z,19.30
2018-12-07T14:12:19.590Z,19.30
2018-12-07T14:14:45.894Z,19.30
2018-12-07T14:17:12.986Z,19.40
2018-12-07T14:19:39.347Z,19.40
2018-12-07T14:22:05.792Z,19.40
2018-12-07T14:24:32.230Z,19.40
2018-12-07T14:26:59.636Z,19.40
2018-12-07T14:29:26.645Z,19.40
2018-12-07T14:31:53.071Z,19.30
2018-12-07T14:34:19.581Z,19.30
2018-12-07T14:36:46.194Z,19.30
2018-12-07T14:39:12.870Z,19.30
2018-12-07T14:41:39.203Z,19.30
2018-12-07T14:44:05.661Z,19.30
2018-12-07T14:46:32.496Z,19.30
2018-12-07T14:48:59.025Z,19.30
2018-12-07T14:51:25.527Z,19.30
2018-12-07T14:53:52.478Z,19.30
2018-12-07T14:56:20.942Z,19.30
2018-12-07T14:58:47.750Z,19.30
2018-12-07T15:01:14.382Z,19.30
2018-12-07T15:03:40.640Z,19.30
2018-12-07T15:06:07.176Z,19.30
2018-12-07T15:08:33.605Z,19.30
2018-12-07T15:11:00.092Z,19.30
2018-12-07T15:13:26.507Z,19.30
2018-12-07T15:15:53.188Z,19.30
2018-12-07T15:18:19.648Z,19.30
2018-12-07T15:20:45.937Z,19.30
2018-12-07T15:23:12.575Z,19.30
2018-12-07T15:25:38.894Z,19.30
2018-12-07T15:28:05.747Z,19.30
2018-12-07T15:30:32.208Z,19.30
2018-12-07T15:32:58.604Z,19.30
2018-12-07T15:35:25.583Z,19.30
2018-12-07T15:37:51.948Z,19.30
2018-12-07T15:40:18.218Z,19.30
2018-12-07T15:42:44.740Z,19.30
2018-12-07T15:45:11.451Z,19.30
2018-12-07T15:47:37.938Z,19.30
2018-12-07T15:50:05.317Z,19.30
2018-12-07T15:52:33.001Z,19.30
2018-12-07T15:54:59.289Z,19.30
2018-12-07T15:57:26.065Z,19.30
2018-12-07T15:59:52.558Z,19.30
2018-12-07T16:02:18.871Z,19.30
2018-12-07T16:04:45.938Z,19.30
2018-12-07T16:07:12.625Z,19.30
2018-12-07T16:09:39.888Z,19.30
2018-12-07T16:12:06.399Z,19.30
2018-12-07T16:14:33.492Z,19.30
2018-12-07T16:16:59.770Z,19.30
2018-12-07T16:19:26.044Z,19.30
2018-12-07T16:21:52.579Z,19.30
2018-12-07T16:24:19.622Z,19.30
2018-12-07T16:26:45.980Z,19.30
2018-12-07T16:29:12.746Z,19.30
2018-12-07T16:31:39.433Z,19.20
2018-12-07T16:34:06.222Z,19.30
2018-12-07T16:36:32.839Z,19.20
2018-12-07T16:38:59.121Z,19.20
2018-12-07T16:41:25.644Z,19.20
2018-12-07T16:43:53.201Z,19.20
2018-12-07T16:46:19.967Z,19.20
2018-12-07T16:48:46.467Z,19.30
2018-12-07T16:51:12.768Z,19.30
2018-12-07T16:53:39.640Z,19.30
2018-12-07T16:56:05.926Z,19.30
2018-12-07T16:58:32.714Z,19.30
2018-12-07T17:00:59.262Z,19.30
2018-12-07T17:03:25.498Z,19.30
2018-12-07T17:05:51.820Z,19.30
2018-12-07T17:08:18.377Z,19.30
2018-12-07T17:10:44.701Z,19.30
2018-12-07T17:13:10.989Z,19.30
2018-12-07T17:15:37.234Z,19.30
2018-12-07T17:18:03.723Z,19.30
2018-12-07T17:20:30.028Z,19.30
2018-12-07T17:22:56.405Z,19.30
2018-12-07T17:25:22.981Z,19.30
2018-12-07T17:27:50.194Z,19.30
2018-12-07T17:30:17.507Z,19.30
2018-12-07T17:32:44.031Z,19.30
2018-12-07T17:35:10.676Z,19.30
2018-12-07T17:37:37.884Z,19.30
2018-12-07T17:40:04.242Z,19.30
2018-12-07T17:42:30.678Z,19.30
2018-12-07T17:44:57.399Z,19.30
2018-12-07T17:47:23.937Z,19.30
2018-12-07T17:49:50.142Z,19.30
2018-12-07T17:52:16.788Z,19.30
2018-12-07T17:54:43.382Z,19.20
2018-12-07T17:57:09.697Z,19.30
2018-12-07T17:59:36.619Z,19.20
2018-12-07T18:02:03.117Z,19.20
2018-12-07T18:04:29.314Z,19.20
2018-12-07T18:06:55.743Z,19.20
2018-12-07T18:09:22.487Z,19.20
2018-12-07T18:11:48.694Z,19.20
2018-12-07T18:14:15.072Z,19.20
2018-12-07T18:16:41.496Z,19.20
2018-12-07T18:19:08.680Z,19.20
2018-12-07T18:21:36.083Z,19.20
2018-12-07T18:24:03.057Z,19.30
2018-12-07T18:26:30.732Z,19.30
2018-12-07T18:28:58.188Z,19.30
2018-12-07T18:31:26.503Z,19.30
2018-12-07T18:33:53.418Z,19.30
2018-12-07T18:36:19.933Z,19.30
2018-12-07T18:38:46.535Z,19.30
2018-12-07T18:41:12.956Z,19.30
2018-12-07T18:43:39.391Z,19.30
2018-12-07T18:46:05.907Z,19.30
2018-12-07T18:48:32.200Z,19.30
2018-12-07T18:50:58.421Z,19.30
2018-12-07T18:53:25.379Z,19.30
2018-12-07T18:55:52.129Z,19.30
2018-12-07T18:58:19.162Z,19.30
2018-12-07T19:00:45.731Z,19.30
2018-12-07T19:03:12.222Z,19.30
2018-12-07T19:05:38.957Z,19.30
2018-12-07T19:08:05.561Z,19.30
2018-12-07T19:10:32.497Z,19.20
2018-12-07T19:13:00.483Z,19.20
2018-12-07T19:15:26.871Z,19.20
2018-12-07T19:17:53.185Z,19.20
2018-12-07T19:20:20.222Z,19.20
2018-12-07T19:22:46.779Z,19.20
2018-12-07T19:25:13.050Z,19.20
2018-12-07T19:27:39.516Z,19.20
2018-12-07T19:30:14.350Z,19.20
2018-12-07T19:32:35.236Z,19.20
2018-12-07T19:35:01.687Z,19.20
2018-12-07T19:37:29.342Z,19.20
2018-12-07T19:39:56.121Z,19.20
2018-12-07T19:42:22.733Z,19.20
2018-12-07T19:44:49.365Z,19.20
2018-12-07T19:47:16.385Z,19.20
2018-12-07T19:49:43.155Z,19.30
2018-12-07T19:52:09.481Z,19.20
2018-12-07T19:54:35.834Z,19.30
2018-12-07T19:57:02.422Z,19.30
2018-12-07T19:59:28.827Z,19.30
2018-12-07T20:01:55.533Z,19.30
2018-12-07T20:04:22.213Z,19.30
2018-12-07T20:06:48.665Z,19.30
2018-12-07T20:09:15.216Z,19.30
2018-12-07T20:11:41.540Z,19.30
2018-12-07T20:14:07.877Z,19.30
2018-12-07T20:16:35.124Z,19.30
2018-12-07T20:19:01.674Z,19.30
2018-12-07T20:21:28.262Z,19.30
2018-12-07T20:23:55.355Z,19.20
2018-12-07T20:26:21.997Z,19.20
2018-12-07T20:28:48.399Z,19.20
2018-12-07T20:31:15.480Z,19.20
2018-12-07T20:33:42.413Z,19.20
2018-12-07T20:36:09.102Z,19.20
2018-12-07T20:38:36.930Z,19.20
2018-12-07T20:41:03.820Z,19.20
2018-12-07T20:43:32.145Z,19.20
2018-12-07T20:45:58.874Z,19.20
2018-12-07T20:48:25.258Z,19.20
2018-12-07T20:50:52.261Z,19.20
2018-12-07T20:53:19.054Z,19.20
2018-12-07T20:55:45.778Z,19.20
2018-12-07T20:58:12.077Z,19.20
2018-12-07T21:00:38.397Z,19.20
2018-12-07T21:03:05.510Z,19.20
2018-12-07T21:05:32.151Z,19.20
2018-12-07T21:07:58.438Z,19.20
2018-12-07T21:10:24.876Z,19.20
2018-12-07T21:12:51.491Z,19.20
2018-12-07T21:15:17.816Z,19.20
2018-12-07T21:17:44.283Z,19.30
2018-12-07T21:20:10.920Z,19.30
2018-12-07T21:22:38.055Z,19.30
2018-12-07T21:25:04.333Z,19.30
2018-12-07T21:27:30.784Z,19.30
2018-12-07T21:29:57.826Z,19.30
2018-12-07T21:32:24.994Z,19.30
2018-12-07T21:34:51.424Z,19.30
2018-12-07T21:37:17.829Z,19.30
2018-12-07T21:39:45.011Z,19.30
2018-12-07T21:42:11.840Z,19.30
2018-12-07T21:44:38.185Z,19.30
2018-12-07T21:47:04.646Z,19.20
2018-12-07T21:49:31.984Z,19.20
2018-12-07T21:51:58.564Z,19.20
2018-12-07T21:54:25.543Z,19.20
2018-12-07T21:56:52.543Z,19.30
2018-12-07T21:59:19.004Z,19.30
2018-12-07T22:01:45.652Z,19.40
2018-12-07T22:04:12.671Z,19.60
2018-12-07T22:06:39.603Z,19.80
2018-12-07T22:09:06.156Z,19.90
2018-12-07T22:11:33.804Z,20.10
2018-12-07T22:14:00.502Z,20.20
2018-12-07T22:16:26.995Z,20.30
2018-12-07T22:18:53.219Z,20.30
2018-12-07T22:21:20.468Z,20.30
2018-12-07T22:23:48.039Z,20.30
2018-12-07T22:26:15.326Z,20.40
2018-12-07T22:28:42.261Z,20.40
2018-12-07T22:31:08.751Z,20.40
2018-12-07T22:33:34.976Z,20.50
2018-12-07T22:36:01.593Z,20.50
2018-12-07T22:38:28.239Z,20.40
2018-12-07T22:40:54.641Z,20.40
2018-12-07T22:43:21.461Z,20.50
2018-12-07T22:45:48.321Z,20.50
2018-12-07T22:48:15.340Z,20.50
2018-12-07T22:50:41.869Z,20.60
2018-12-07T22:53:08.078Z,20.60
2018-12-07T22:55:34.458Z,20.60
2018-12-07T22:58:00.696Z,20.60
2018-12-07T23:00:26.892Z,20.60
2018-12-07T23:02:53.736Z,20.60
2018-12-07T23:05:19.941Z,20.60
2018-12-07T23:07:46.186Z,20.60
2018-12-07T23:10:12.443Z,20.60
2018-12-07T23:12:39.707Z,20.60
2018-12-07T23:15:06.571Z,20.70
2018-12-07T23:17:32.800Z,20.60
2018-12-07T23:19:59.697Z,20.60
2018-12-07T23:22:25.924Z,20.70
